createdAt,value
2022-10-25T00:00:10.961Z,11.87
2022-10-25T00:03:00.092Z,11.84
2022-10-25T00:05:47.678Z,11.80
2022-10-25T00:08:35.359Z,11.76
2022-10-25T00:11:26.371Z,11.75
2022-10-25T00:14:18.557Z,11.71
2022-10-25T00:17:06.167Z,11.66
2022-10-25T00:19:55.098Z,11.63
2022-10-25T00:22:43.237Z,11.59
2022-10-25T00:25:31.108Z,11.55
2022-10-25T00:28:18.517Z,11.52
2022-10-25T00:31:09.831Z,11.48
2022-10-25T00:33:57.276Z,11.42
2022-10-25T00:36:46.342Z,11.37
2022-10-25T00:39:34.161Z,11.33
2022-10-25T00:42:25.415Z,11.28
2022-10-25T00:45:23.176Z,11.22
2022-10-25T00:48:13.483Z,11.19
2022-10-25T00:51:01.935Z,11.15
2022-10-25T00:53:51.510Z,11.10
2022-10-25T00:56:43.875Z,11.06
2022-10-25T00:59:32.844Z,11.03
2022-10-25T01:02:24.940Z,10.98
2022-10-25T01:05:13.642Z,10.97
2022-10-25T01:08:01.280Z,10.92
2022-10-25T01:10:51.743Z,10.89
2022-10-25T01:13:40.325Z,10.85
2022-10-25T01:16:44.548Z,10.82
2022-10-25T01:20:12.428Z,10.82
2022-10-25T01:23:20.695Z,10.80
2022-10-25T01:26:51.929Z,10.77
2022-10-25T01:30:08.194Z,10.80
2022-10-25T01:33:16.056Z,10.81
2022-10-25T01:36:15.621Z,10.78
2022-10-25T01:39:16.402Z,10.71
2022-10-25T01:42:13.922Z,10.72
2022-10-25T01:45:12.398Z,10.67
2022-10-25T01:48:11.111Z,10.61
2022-10-25T01:51:10.826Z,10.66
2022-10-25T01:53:58.920Z,10.61
2022-10-25T01:56:59.256Z,10.55
2022-10-25T02:00:07.149Z,10.53
2022-10-25T02:03:18.214Z,10.47
2022-10-25T02:06:25.710Z,10.42
2022-10-25T02:09:24.744Z,10.38
2022-10-25T02:12:22.557Z,10.35
2022-10-25T02:15:17.669Z,10.29
2022-10-25T02:18:14.356Z,10.25
2022-10-25T02:21:06.365Z,10.22
2022-10-25T02:23:57.558Z,10.20
2022-10-25T02:29:44.239Z,10.16
2022-10-25T02:32:32.209Z,10.13
2022-10-25T02:35:21.344Z,10.09
2022-10-25T02:38:10.185Z,10.07
2022-10-25T02:40:59.031Z,10.04
2022-10-25T02:43:49.383Z,10.03
2022-10-25T02:46:37.212Z,9.98
2022-10-25T02:49:25.080Z,9.98
2022-10-25T02:52:13.849Z,9.93
2022-10-25T02:55:01.390Z,9.93
2022-10-25T02:57:48.827Z,9.95
2022-10-25T03:00:36.435Z,9.94
2022-10-25T03:03:23.766Z,9.97
2022-10-25T03:06:12.904Z,9.97
2022-10-25T03:09:01.989Z,9.92
2022-10-25T03:11:50.110Z,9.93
2022-10-25T03:14:37.691Z,9.98
2022-10-25T03:17:25.158Z,10.00
2022-10-25T03:20:12.845Z,10.01
2022-10-25T03:23:00.233Z,9.94
2022-10-25T03:25:54.278Z,9.94
2022-10-25T03:28:41.834Z,9.94
2022-10-25T03:31:29.406Z,9.92
2022-10-25T03:34:16.849Z,9.92
2022-10-25T03:37:04.187Z,9.86
2022-10-25T03:39:51.638Z,9.88
2022-10-25T03:42:40.475Z,9.77
2022-10-25T03:45:28.529Z,9.75
2022-10-25T03:48:16.473Z,9.72
2022-10-25T03:51:04.278Z,9.70
2022-10-25T03:53:51.887Z,9.73
2022-10-25T03:56:39.624Z,9.71
2022-10-25T03:59:28.982Z,9.68
2022-10-25T04:02:17.581Z,9.58
2022-10-25T04:05:06.793Z,9.55
2022-10-25T04:07:54.823Z,9.52
2022-10-25T04:10:42.381Z,9.49
2022-10-25T04:13:29.846Z,9.45
2022-10-25T04:16:19.239Z,9.42
2022-10-25T04:19:06.891Z,9.40
2022-10-25T04:21:54.556Z,9.34
2022-10-25T04:24:42.058Z,9.36
2022-10-25T04:27:29.483Z,9.36
2022-10-25T04:30:17.481Z,9.30
2022-10-25T04:33:06.435Z,9.28
2022-10-25T04:35:58.115Z,9.22
2022-10-25T04:38:48.926Z,9.26
2022-10-25T04:41:36.453Z,9.23
2022-10-25T04:44:23.998Z,9.28
2022-10-25T04:47:11.688Z,9.27
2022-10-25T04:50:00.944Z,9.30
2022-10-25T04:52:49.125Z,9.33
2022-10-25T04:55:37.443Z,9.32
2022-10-25T04:58:30.350Z,9.34
2022-10-25T05:01:20.529Z,9.33
2022-10-25T05:04:08.087Z,9.27
2022-10-25T05:06:56.760Z,9.16
2022-10-25T05:09:46.657Z,9.13
2022-10-25T05:12:35.510Z,9.12
2022-10-25T05:15:23.037Z,9.12
2022-10-25T05:18:10.574Z,9.07
2022-10-25T05:21:01.745Z,9.14
2022-10-25T05:23:50.547Z,9.14
2022-10-25T05:26:38.010Z,9.23
2022-10-25T05:29:25.719Z,9.18
2022-10-25T05:32:13.220Z,9.26
2022-10-25T05:35:00.663Z,9.34
2022-10-25T05:37:49.264Z,9.39
2022-10-25T05:40:38.241Z,9.46
2022-10-25T05:43:27.405Z,9.58
2022-10-25T05:46:18.476Z,9.65
2022-10-25T05:49:06.177Z,9.80
2022-10-25T05:51:53.751Z,9.97
2022-10-25T05:54:41.615Z,9.91
2022-10-25T05:57:30.830Z,9.98
2022-10-25T06:00:19.502Z,9.93
2022-10-25T06:03:06.898Z,10.05
2022-10-25T06:05:54.342Z,10.03
2022-10-25T06:08:41.961Z,10.03
2022-10-25T06:11:30.940Z,10.09
2022-10-25T06:14:19.921Z,10.11
2022-10-25T06:17:07.815Z,10.14
2022-10-25T06:19:55.380Z,10.13
2022-10-25T06:22:43.809Z,10.19
2022-10-25T06:25:31.595Z,10.21
2022-10-25T06:28:19.027Z,10.24
2022-10-25T06:31:12.388Z,10.21
2022-10-25T06:34:01.360Z,10.15
2022-10-25T06:36:48.876Z,10.19
2022-10-25T06:39:36.287Z,10.19
2022-10-25T06:42:52.348Z,10.36
2022-10-25T06:45:39.979Z,10.47
2022-10-25T06:48:29.371Z,10.50
2022-10-25T06:51:16.835Z,10.47
2022-10-25T06:54:08.133Z,10.52
2022-10-25T06:56:55.874Z,10.63
2022-10-25T06:59:43.412Z,10.72
2022-10-25T07:02:30.836Z,10.80
2022-10-25T07:05:19.538Z,10.86
2022-10-25T07:08:07.239Z,10.92
2022-10-25T07:10:55.650Z,11.06
2022-10-25T07:13:43.771Z,11.17
2022-10-25T07:16:31.735Z,11.29
2022-10-25T07:19:19.483Z,11.36
2022-10-25T07:22:08.150Z,11.42
2022-10-25T07:24:55.961Z,11.50
2022-10-25T07:27:43.457Z,11.51
2022-10-25T07:30:32.261Z,11.56
2022-10-25T07:33:21.477Z,11.51
2022-10-25T07:36:11.773Z,11.55
2022-10-25T07:39:01.441Z,11.65
2022-10-25T07:41:49.958Z,11.78
2022-10-25T07:44:37.591Z,11.96
2022-10-25T07:47:25.520Z,12.05
2022-10-25T07:50:13.370Z,12.10
2022-10-25T07:53:00.688Z,12.04
2022-10-25T07:55:53.822Z,12.09
2022-10-25T07:58:41.421Z,12.19
2022-10-25T08:01:29.837Z,12.32
2022-10-25T08:04:18.555Z,12.31
2022-10-25T08:07:06.293Z,12.30
2022-10-25T08:09:53.810Z,12.34
2022-10-25T08:12:42.793Z,12.47
2022-10-25T08:15:30.627Z,12.70
2022-10-25T08:18:18.457Z,12.70
2022-10-25T08:21:07.436Z,12.68
2022-10-25T08:23:55.132Z,12.76
2022-10-25T08:26:42.742Z,12.80
2022-10-25T08:29:31.517Z,12.80
2022-10-25T08:32:19.153Z,12.85
2022-10-25T08:35:07.423Z,12.92
2022-10-25T08:37:54.868Z,13.02
2022-10-25T08:40:55.353Z,13.35
2022-10-25T08:44:15.715Z,13.38
2022-10-25T08:47:14.534Z,13.38
2022-10-25T08:50:11.790Z,13.59
2022-10-25T08:53:04.994Z,13.54
2022-10-25T08:56:11.421Z,13.63
2022-10-25T08:59:03.592Z,13.75
2022-10-25T09:01:57.456Z,13.83
2022-10-25T09:04:46.710Z,13.95
2022-10-25T09:08:11.803Z,14.00
2022-10-25T09:11:20.861Z,13.99
2022-10-25T09:14:26.298Z,14.07
2022-10-25T09:17:21.086Z,14.14
2022-10-25T09:20:21.264Z,14.33
2022-10-25T09:26:19.267Z,14.43
2022-10-25T09:29:22.241Z,14.46
2022-10-25T09:32:26.231Z,14.50
2022-10-25T09:35:20.903Z,14.55
2022-10-25T09:38:19.150Z,14.60
2022-10-25T09:41:17.166Z,14.66
2022-10-25T09:44:13.946Z,14.71
2022-10-25T09:47:13.925Z,14.79
2022-10-25T09:50:06.050Z,14.84
2022-10-25T09:53:18.833Z,15.01
2022-10-25T09:56:10.524Z,15.15
2022-10-25T09:59:01.513Z,15.21
2022-10-25T10:01:49.510Z,15.21
2022-10-25T10:04:40.732Z,15.31
2022-10-25T10:07:34.222Z,15.46
2022-10-25T10:10:27.853Z,15.53
2022-10-25T10:13:34.961Z,15.60
2022-10-25T10:16:30.508Z,15.75
2022-10-25T10:19:21.174Z,15.91
2022-10-25T10:22:15.207Z,16.01
2022-10-25T10:25:04.626Z,16.16
2022-10-25T10:27:58.584Z,16.29
2022-10-25T10:31:02.341Z,16.45
2022-10-25T10:33:52.306Z,16.52
2022-10-25T10:36:40.129Z,16.62
2022-10-25T10:39:27.563Z,16.77
2022-10-25T10:42:18.309Z,16.84
2022-10-25T10:45:18.562Z,17.04
2022-10-25T10:48:06.928Z,17.15
2022-10-25T10:50:57.832Z,17.36
2022-10-25T10:53:45.383Z,17.43
2022-10-25T10:56:34.174Z,17.62
2022-10-25T10:59:41.023Z,17.80
2022-10-25T11:02:43.534Z,17.88
2022-10-25T11:05:34.883Z,17.77
2022-10-25T11:08:22.576Z,17.94
2022-10-25T11:11:18.124Z,18.08
2022-10-25T11:14:13.611Z,18.21
2022-10-25T11:17:07.984Z,18.37
2022-10-25T11:20:24.900Z,18.71
2022-10-25T11:23:22.938Z,18.70
2022-10-25T11:26:20.037Z,18.84
2022-10-25T11:29:18.898Z,19.04
2022-10-25T11:32:46.402Z,19.27
2022-10-25T11:36:03.728Z,19.56
2022-10-25T11:39:15.021Z,19.67
2022-10-25T11:45:39.418Z,20.04
2022-10-25T11:48:48.168Z,20.08
2022-10-25T11:51:50.142Z,20.04
2022-10-25T11:54:45.971Z,20.06
2022-10-25T11:57:48.748Z,20.14
2022-10-25T12:00:51.314Z,20.18
2022-10-25T12:04:26.939Z,20.63
2022-10-25T12:07:29.910Z,20.88
2022-10-25T12:10:30.009Z,21.18
2022-10-25T12:13:22.990Z,21.61
2022-10-25T12:16:15.152Z,21.64
2022-10-25T12:19:13.078Z,21.62
2022-10-25T12:22:06.004Z,21.66
2022-10-25T12:25:02.133Z,21.77
2022-10-25T12:28:00.889Z,21.75
2022-10-25T12:30:51.746Z,21.92
2022-10-25T12:33:44.989Z,21.84
2022-10-25T12:36:39.174Z,21.90
2022-10-25T12:39:39.676Z,21.69
2022-10-25T12:42:38.194Z,21.84
2022-10-25T12:46:06.264Z,21.99
2022-10-25T12:49:29.137Z,21.94
2022-10-25T12:52:32.333Z,21.74
2022-10-25T12:55:43.538Z,21.57
2022-10-25T12:59:00.704Z,21.25
2022-10-25T13:02:12.285Z,21.13
2022-10-25T13:05:34.740Z,21.05
2022-10-25T13:08:26.875Z,20.65
2022-10-25T13:11:14.948Z,20.57
2022-10-25T13:14:05.613Z,20.41
2022-10-25T13:16:53.159Z,20.41
2022-10-25T13:19:56.343Z,20.30
2022-10-25T13:22:44.752Z,20.08
2022-10-25T13:26:08.138Z,19.99
2022-10-25T13:28:58.788Z,19.90
2022-10-25T13:32:10.203Z,19.78
2022-10-25T13:35:00.047Z,19.73
2022-10-25T13:37:50.456Z,19.65
2022-10-25T13:40:39.250Z,19.48
2022-10-25T13:43:26.876Z,19.36
2022-10-25T13:46:16.476Z,19.29
2022-10-25T13:49:33.987Z,19.18
2022-10-25T13:52:29.619Z,19.11
2022-10-25T13:55:23.229Z,18.99
2022-10-25T13:58:49.608Z,18.89
2022-10-25T14:01:57.772Z,18.79
2022-10-25T14:04:47.160Z,18.72
2022-10-25T14:07:50.958Z,18.62
2022-10-25T14:10:39.673Z,18.56
2022-10-25T14:13:46.065Z,18.46
2022-10-25T14:16:37.536Z,18.39
2022-10-25T14:19:37.572Z,18.33
2022-10-25T14:22:34.961Z,18.27
2022-10-25T14:25:25.667Z,18.21
2022-10-25T14:28:17.206Z,18.18
2022-10-25T14:31:07.713Z,18.16
2022-10-25T14:33:57.056Z,18.11
2022-10-25T14:36:51.310Z,18.09
2022-10-25T14:39:53.549Z,18.09
2022-10-25T14:42:41.076Z,18.04
2022-10-25T14:45:28.554Z,18.06
2022-10-25T14:48:16.217Z,18.04
2022-10-25T14:51:09.420Z,18.00
2022-10-25T14:54:02.854Z,17.99
2022-10-25T14:56:56.085Z,17.96
2022-10-25T14:59:51.986Z,17.93
2022-10-25T15:02:41.714Z,17.90
2022-10-25T15:05:29.716Z,17.85
2022-10-25T15:08:23.077Z,17.81
2022-10-25T15:11:17.820Z,17.76
2022-10-25T15:14:22.741Z,17.75
2022-10-25T15:17:20.715Z,17.74
2022-10-25T15:20:29.524Z,17.68
2022-10-25T15:23:21.761Z,17.62
2022-10-25T15:26:27.787Z,17.55
2022-10-25T15:29:32.976Z,17.47
2022-10-25T15:32:23.921Z,17.40
2022-10-25T15:35:25.698Z,17.31
2022-10-25T15:38:13.545Z,17.20
2022-10-25T15:41:01.398Z,17.10
2022-10-25T15:43:49.154Z,17.01
2022-10-25T15:46:38.143Z,16.91
2022-10-25T15:49:26.076Z,16.79
2022-10-25T15:52:16.447Z,16.68
2022-10-25T15:55:04.125Z,16.57
2022-10-25T15:57:52.430Z,16.44
2022-10-25T16:00:40.709Z,16.33
2022-10-25T16:03:29.578Z,16.22
2022-10-25T16:06:17.134Z,16.11
2022-10-25T16:09:04.637Z,15.96
2022-10-25T16:11:56.226Z,15.81
2022-10-25T16:14:43.834Z,15.67
2022-10-25T16:17:31.696Z,15.52
2022-10-25T16:20:23.822Z,15.36
2022-10-25T16:23:11.370Z,15.23
2022-10-25T16:25:59.676Z,15.07
2022-10-25T16:28:47.493Z,14.93
2022-10-25T16:31:35.305Z,14.79
2022-10-25T16:34:23.470Z,14.66
2022-10-25T16:37:12.349Z,14.52
2022-10-25T16:39:59.733Z,14.38
2022-10-25T16:42:48.217Z,14.26
2022-10-25T16:45:38.375Z,14.14
2022-10-25T16:48:26.407Z,14.02
2022-10-25T16:51:16.270Z,13.91
2022-10-25T16:54:07.027Z,13.81
2022-10-25T16:56:54.818Z,13.71
2022-10-25T16:59:42.341Z,13.60
2022-10-25T17:02:29.663Z,13.50
2022-10-25T17:05:22.110Z,13.38
2022-10-25T17:08:09.501Z,13.28
2022-10-25T17:10:58.349Z,13.17
2022-10-25T17:13:46.361Z,13.08
2022-10-25T17:16:34.312Z,12.99
2022-10-25T17:19:21.687Z,12.89
2022-10-25T17:22:09.620Z,12.78
2022-10-25T17:24:57.244Z,12.71
2022-10-25T17:27:47.990Z,12.62
2022-10-25T17:30:36.036Z,12.53
2022-10-25T17:33:26.213Z,12.43
2022-10-25T17:36:17.468Z,12.33
2022-10-25T17:39:07.714Z,12.25
2022-10-25T17:41:55.239Z,12.18
2022-10-25T17:44:44.606Z,12.12
2022-10-25T17:47:32.003Z,12.04
2022-10-25T17:50:21.397Z,11.97
2022-10-25T17:53:11.925Z,11.90
2022-10-25T17:55:59.933Z,11.83
2022-10-25T17:58:49.330Z,11.72
2022-10-25T18:01:40.034Z,11.65
2022-10-25T18:04:27.885Z,11.59
2022-10-25T18:07:15.902Z,11.56
2022-10-25T18:10:03.454Z,11.51
2022-10-25T18:12:51.411Z,11.46
2022-10-25T18:15:39.391Z,11.40
2022-10-25T18:18:28.799Z,11.34
2022-10-25T18:21:17.636Z,11.27
2022-10-25T18:24:06.828Z,11.23
2022-10-25T18:26:54.160Z,11.16
2022-10-25T18:29:42.031Z,11.11
2022-10-25T18:32:33.687Z,11.07
2022-10-25T18:35:25.119Z,11.04
2022-10-25T18:38:17.099Z,10.95
2022-10-25T18:41:08.320Z,10.89
2022-10-25T18:43:57.026Z,10.83
2022-10-25T18:46:45.078Z,10.78
2022-10-25T18:49:32.962Z,10.72
2022-10-25T18:52:22.262Z,10.67
2022-10-25T18:55:10.161Z,10.53
2022-10-25T18:58:01.366Z,10.49
2022-10-25T19:00:49.031Z,10.39
2022-10-25T19:03:36.628Z,10.38
2022-10-25T19:06:24.027Z,10.35
2022-10-25T19:09:14.327Z,10.34
2022-10-25T19:12:02.096Z,10.28
2022-10-25T19:14:49.505Z,10.25
2022-10-25T19:17:36.938Z,10.20
2022-10-25T19:20:24.711Z,10.16
2022-10-25T19:23:12.484Z,10.11
2022-10-25T19:26:04.084Z,10.07
2022-10-25T19:28:58.619Z,10.02
2022-10-25T19:31:46.020Z,9.98
2022-10-25T19:34:33.390Z,9.94
2022-10-25T19:37:20.868Z,9.87
2022-10-25T19:40:11.556Z,9.79
2022-10-25T19:43:00.894Z,9.77
2022-10-25T19:45:48.483Z,9.74
2022-10-25T19:48:36.868Z,9.70
2022-10-25T19:51:24.360Z,9.68
2022-10-25T19:54:12.015Z,9.64
2022-10-25T19:57:01.075Z,9.61
2022-10-25T19:59:50.002Z,9.57
2022-10-25T20:02:37.826Z,9.54
2022-10-25T20:05:26.085Z,9.51
2022-10-25T20:08:13.659Z,9.48
2022-10-25T20:11:01.445Z,9.43
2022-10-25T20:13:49.398Z,9.40
2022-10-25T20:16:38.546Z,9.38
2022-10-25T20:19:26.096Z,9.36
2022-10-25T20:22:13.735Z,9.33
2022-10-25T20:25:01.477Z,9.28
2022-10-25T20:27:49.176Z,9.27
2022-10-25T20:30:38.679Z,9.25
2022-10-25T20:33:27.553Z,9.21
2022-10-25T20:36:15.490Z,9.18
2022-10-25T20:39:03.351Z,9.16
2022-10-25T20:41:51.300Z,9.14
2022-10-25T20:44:38.853Z,9.11
2022-10-25T20:47:26.280Z,9.07
2022-10-25T20:50:14.954Z,9.04
2022-10-25T20:53:10.754Z,9.01
2022-10-25T20:55:58.687Z,8.99
2022-10-25T20:58:46.674Z,8.94
2022-10-25T21:01:34.475Z,8.91
2022-10-25T21:04:36.058Z,8.90
2022-10-25T21:07:33.745Z,8.83
2022-10-25T21:10:21.533Z,8.82
2022-10-25T21:13:10.282Z,8.78
2022-10-25T21:15:58.236Z,8.75
2022-10-25T21:18:46.309Z,8.73
2022-10-25T21:21:34.062Z,8.69
2022-10-25T21:24:22.981Z,8.66
2022-10-25T21:27:10.853Z,8.64
2022-10-25T21:30:00.320Z,8.61
2022-10-25T21:32:51.253Z,8.59
2022-10-25T21:35:38.946Z,8.54
2022-10-25T21:38:26.644Z,8.53
2022-10-25T21:41:19.743Z,8.50
2022-10-25T21:46:54.921Z,8.44
2022-10-25T21:49:42.377Z,8.43
2022-10-25T21:52:31.494Z,8.41
2022-10-25T21:55:20.892Z,8.39
2022-10-25T21:58:09.941Z,8.37
2022-10-25T22:00:57.273Z,8.34
2022-10-25T22:03:44.858Z,8.31
2022-10-25T22:06:32.335Z,8.29
2022-10-25T22:09:19.793Z,8.26
2022-10-25T22:12:07.618Z,8.23
2022-10-25T22:14:57.304Z,8.22
2022-10-25T22:17:45.038Z,8.21
2022-10-25T22:20:32.687Z,8.18
2022-10-25T22:23:20.083Z,8.17
2022-10-25T22:26:10.602Z,8.16
2022-10-25T22:29:00.304Z,8.13
2022-10-25T22:31:50.567Z,8.11
2022-10-25T22:34:38.135Z,8.08
2022-10-25T22:37:25.340Z,8.06
2022-10-25T22:40:12.948Z,8.04
2022-10-25T22:43:04.025Z,8.02
2022-10-25T22:45:51.939Z,8.01
2022-10-25T22:48:43.721Z,8.02
2022-10-25T22:51:31.103Z,8.01
2022-10-25T22:54:18.506Z,8.02
2022-10-25T22:57:05.954Z,8.03
2022-10-25T22:59:53.423Z,8.01
2022-10-25T23:02:40.809Z,8.01
2022-10-25T23:05:29.558Z,8.02
2022-10-25T23:08:16.988Z,8.01
2022-10-25T23:11:07.833Z,8.02
2022-10-25T23:13:55.713Z,8.01
2022-10-25T23:16:43.159Z,7.98
2022-10-25T23:19:30.405Z,8.00
2022-10-25T23:22:19.116Z,7.98
2022-10-25T23:25:08.061Z,7.97
2022-10-25T23:27:55.369Z,7.98
2022-10-25T23:30:44.598Z,7.97
2022-10-25T23:33:32.345Z,7.95
2022-10-25T23:36:22.080Z,7.95
2022-10-25T23:39:11.400Z,7.94
2022-10-25T23:41:58.771Z,7.91
2022-10-25T23:44:46.241Z,7.91
2022-10-25T23:47:34.641Z,7.89
2022-10-25T23:50:22.334Z,7.88
2022-10-25T23:53:10.260Z,7.83
2022-10-25T23:55:59.733Z,7.81
2022-10-25T23:58:50.409Z,7.81
